Briefing drone pour Saint-marcel-les-valence

Rechercher une autre localisation

Conditions de vol :


Nous sommes le : Jeudi 24 juin 2021
Il est 07:08 UTC (09:08 LT)

Lever de soleil : 03:28 UTC (05:28 LT)
Coucher de soleil : 19:56 UTC (21:56 LT)

Météo

L'essentiel des conditions de vol

VIGILANCE MÉTÉO FRANCE - Drôme (26)
Vigilance Jaune : Orages
CARTES DES FRONTS
METAR de LFLU
LFLU 240700Z AUTO VRB02KT 9999 FEW006 OVC033 17/16 Q1018

Date d'émission: 24/06/2021
Heure d'émission: 07:00 UTC
Vent: Variable 2 KT (4 km/h)
Visibilité horizontale: > 10 km
Plafond :
- Peu de nuages à 600ft (183m)
- Couvert à 3300ft (1006m)
Température: 17 °C
Point de rosée: 16 °C
Humidité: 94%
Pression (QNH): 1018 hPa
Prévision 24h pour Valence (3 km)
Vent : 32° pour 2 KT (8 km/h)
Temperature Maxi: 12 °C
Temperature Min: 12 °C
Humidité : 95%
Condition : Ciel dégagé



Warning: count(): Parameter must be an array or an object that implements Countable in /homepages/6/d509196549/htdocs/droneoxygene/briefing.php on line 743
WEBCAM POUR SAINT-MARCEL-LES-VALENCE

Réglementation

Voler en sécurité

CARTES AERONAUTIQUE 1/500.000
CARTES VAC (LFLU)
SUP AIP




Chargement des AIP...
NOTAM (SAINT-MARCEL-LES-VALENCE + Terrain à proximité / FIR )




Chargement des NOTAMS...
CONTACT PREFECTURE 26
Drôme (26) : ddt-satem@drome.gouv.fr


Avertissement : Les données mises à disposition sont indicatives. Oxygène Drone ne pourra être tenu responsable de dégâts causés aux biens et aux personnes.